createdAt,value
2017-08-20T00:00:34.966Z,9.30
2017-08-20T00:03:04.225Z,9.03
2017-08-20T00:05:33.664Z,7.17
2017-08-20T00:08:03.119Z,8.87
2017-08-20T00:10:32.380Z,8.30
2017-08-20T00:13:01.817Z,7.43
2017-08-20T00:15:31.254Z,9.30
2017-08-20T00:18:00.684Z,7.30
2017-08-20T00:20:30.162Z,10.40
2017-08-20T00:22:59.620Z,11.60
2017-08-20T00:25:29.077Z,11.60
2017-08-20T00:27:58.520Z,12.70
2017-08-20T00:30:27.985Z,12.43
2017-08-20T00:32:57.461Z,17.10
2017-08-20T00:35:26.908Z,9.50
2017-08-20T00:37:56.367Z,10.90
2017-08-20T00:40:25.814Z,8.87
2017-08-20T00:42:55.267Z,9.67
2017-08-20T00:45:24.709Z,12.90
2017-08-20T00:47:54.153Z,10.40
2017-08-20T00:50:23.614Z,15.10
2017-08-20T00:52:53.061Z,9.07
2017-08-20T00:55:22.535Z,13.60
2017-08-20T00:57:51.969Z,8.77
2017-08-20T01:00:21.508Z,15.30
2017-08-20T01:02:50.764Z,10.80
2017-08-20T01:05:20.268Z,10.87
2017-08-20T01:07:49.716Z,8.60
2017-08-20T01:10:19.199Z,8.27
2017-08-20T01:12:48.645Z,10.83
2017-08-20T01:15:18.164Z,13.23
2017-08-20T01:17:47.718Z,13.10
2017-08-20T01:20:17.258Z,13.93
2017-08-20T01:22:46.715Z,11.00
2017-08-20T01:25:16.215Z,11.93
2017-08-20T01:27:45.661Z,14.93
2017-08-20T01:30:15.194Z,14.07
2017-08-20T01:32:44.673Z,15.30
2017-08-20T01:35:14.177Z,13.43
2017-08-20T01:37:43.645Z,16.30
2017-08-20T01:40:13.140Z,15.70
2017-08-20T01:42:42.579Z,16.73
2017-08-20T01:45:12.064Z,19.93
2017-08-20T01:47:41.516Z,19.80
2017-08-20T01:50:11.007Z,22.77
2017-08-20T01:52:40.475Z,23.70
2017-08-20T01:55:09.973Z,25.93
2017-08-20T01:57:39.408Z,21.83
2017-08-20T02:00:08.900Z,24.87
2017-08-20T02:02:38.180Z,29.50
2017-08-20T02:05:07.676Z,31.50
2017-08-20T02:07:37.123Z,30.23
2017-08-20T02:10:06.621Z,30.07
2017-08-20T02:12:35.908Z,32.20
2017-08-20T02:15:05.393Z,29.80
2017-08-20T02:17:34.844Z,27.27
2017-08-20T02:20:04.353Z,28.67
2017-08-20T02:22:33.817Z,29.00
2017-08-20T02:25:03.357Z,41.40
2017-08-20T02:27:32.792Z,30.47
2017-08-20T02:30:02.299Z,40.93
2017-08-20T02:32:31.752Z,34.67
2017-08-20T02:35:01.228Z,38.20
2017-08-20T02:37:30.685Z,32.40
2017-08-20T02:40:00.140Z,36.13
2017-08-20T02:42:29.599Z,40.70
2017-08-20T02:44:59.052Z,37.30
2017-08-20T02:47:28.508Z,38.20
2017-08-20T02:49:57.956Z,39.43
2017-08-20T02:52:27.421Z,31.70
2017-08-20T02:54:56.887Z,41.83
2017-08-20T02:57:26.344Z,36.37
2017-08-20T02:59:56.104Z,34.33
2017-08-20T03:02:25.705Z,39.08
2017-08-20T03:04:55.153Z,35.77
2017-08-20T03:07:24.620Z,36.23
2017-08-20T03:09:54.081Z,38.10
2017-08-20T03:12:23.572Z,49.33
2017-08-20T03:14:53.321Z,43.55
2017-08-20T03:17:23.081Z,47.00
2017-08-20T03:19:52.532Z,48.40
2017-08-20T03:22:21.997Z,48.57
2017-08-20T03:24:51.560Z,35.50
2017-08-20T03:27:21.026Z,37.40
2017-08-20T03:29:50.788Z,44.75
2017-08-20T03:32:20.536Z,46.08
2017-08-20T03:34:50.288Z,38.45
2017-08-20T03:37:19.802Z,44.90
2017-08-20T03:39:49.545Z,51.22
2017-08-20T03:42:19.296Z,43.13
2017-08-20T03:44:49.068Z,41.05
2017-08-20T03:47:18.555Z,47.37
2017-08-20T03:49:48.345Z,44.75
2017-08-20T03:52:18.110Z,41.60
2017-08-20T03:54:47.860Z,43.03
2017-08-20T03:57:17.628Z,39.13
2017-08-20T03:59:47.381Z,39.53
2017-08-20T04:02:17.145Z,42.00
2017-08-20T04:04:46.897Z,34.85
2017-08-20T04:07:16.647Z,41.50
2017-08-20T04:09:46.122Z,37.27
2017-08-20T04:12:15.891Z,36.42
2017-08-20T04:14:45.632Z,31.92
2017-08-20T04:17:15.569Z,33.97
2017-08-20T04:19:45.320Z,38.08
2017-08-20T04:22:15.068Z,25.80
2017-08-20T04:24:44.544Z,24.77
2017-08-20T04:27:14.016Z,29.53
2017-08-20T04:29:43.473Z,28.90
2017-08-20T04:32:13.209Z,26.33
2017-08-20T04:34:42.683Z,24.27
2017-08-20T04:37:12.121Z,25.20
2017-08-20T04:39:41.579Z,20.57
2017-08-20T04:42:11.059Z,21.27
2017-08-20T04:44:40.547Z,21.57
2017-08-20T04:47:10.012Z,20.97
2017-08-20T04:49:39.476Z,21.00
2017-08-20T04:52:08.935Z,22.53
2017-08-20T04:54:39.237Z,16.50
2017-08-20T04:57:08.789Z,18.73
2017-08-20T04:59:38.236Z,17.43
2017-08-20T05:02:07.694Z,15.23
2017-08-20T05:04:37.173Z,14.40
2017-08-20T05:07:06.644Z,14.83
2017-08-20T05:09:36.146Z,18.57
2017-08-20T05:12:05.596Z,17.60
2017-08-20T05:14:35.050Z,17.83
2017-08-20T05:17:04.504Z,20.10
2017-08-20T05:19:33.958Z,16.37
2017-08-20T05:22:03.425Z,16.77
2017-08-20T05:24:32.888Z,15.40
2017-08-20T05:27:02.335Z,15.00
2017-08-20T05:29:32.052Z,15.87
2017-08-20T05:32:01.501Z,16.93
2017-08-20T05:34:30.953Z,13.83
2017-08-20T05:37:00.429Z,15.10
2017-08-20T05:39:29.871Z,11.87
2017-08-20T05:41:59.319Z,14.53
2017-08-20T05:44:28.777Z,13.70
2017-08-20T05:46:58.722Z,13.47
2017-08-20T05:49:28.170Z,13.60
2017-08-20T05:51:57.625Z,18.07
2017-08-20T05:54:27.084Z,12.70
2017-08-20T05:56:56.549Z,12.37
2017-08-20T05:59:25.997Z,13.20
2017-08-20T06:01:55.452Z,13.13
2017-08-20T06:04:24.905Z,13.50
2017-08-20T06:06:54.360Z,13.80
2017-08-20T06:09:23.639Z,17.27
2017-08-20T06:11:53.113Z,14.00
2017-08-20T06:14:22.745Z,14.13
2017-08-20T06:16:52.200Z,15.73
2017-08-20T06:19:21.684Z,16.50
2017-08-20T06:21:51.123Z,15.20
2017-08-20T06:24:20.573Z,15.63
2017-08-20T06:26:50.037Z,23.30
2017-08-20T06:29:19.508Z,17.17
2017-08-20T06:31:48.990Z,14.13
2017-08-20T06:34:18.446Z,16.77
2017-08-20T06:36:47.904Z,18.13
2017-08-20T06:39:17.362Z,17.60
2017-08-20T06:41:46.835Z,14.40
2017-08-20T06:44:16.263Z,14.90
2017-08-20T06:46:45.735Z,11.67
2017-08-20T06:49:15.193Z,10.53
2017-08-20T06:51:44.653Z,12.20
2017-08-20T06:54:14.097Z,11.00
2017-08-20T06:56:43.556Z,15.90
2017-08-20T06:59:13.001Z,11.03
2017-08-20T07:01:42.472Z,9.90
2017-08-20T07:04:11.926Z,9.37
2017-08-20T07:06:41.373Z,8.77
2017-08-20T07:09:10.874Z,14.13
2017-08-20T07:11:40.318Z,10.83
2017-08-20T07:14:09.756Z,9.07
2017-08-20T07:16:40.187Z,13.67
2017-08-20T07:19:09.630Z,10.13
2017-08-20T07:21:40.658Z,9.23
2017-08-20T07:24:10.095Z,8.70
2017-08-20T07:26:39.559Z,11.03
2017-08-20T07:29:09.008Z,13.00
2017-08-20T07:31:38.465Z,9.30
2017-08-20T07:34:07.905Z,12.60
2017-08-20T07:36:37.357Z,9.00
2017-08-20T07:39:06.789Z,9.77
2017-08-20T07:41:36.241Z,9.20
2017-08-20T07:44:05.708Z,10.80
2017-08-20T07:46:35.152Z,9.67
2017-08-20T07:49:04.610Z,10.27
2017-08-20T07:51:34.084Z,10.50
2017-08-20T07:54:03.610Z,8.23
2017-08-20T07:56:33.056Z,9.20
2017-08-20T07:59:02.525Z,10.63
2017-08-20T08:01:31.997Z,9.83
2017-08-20T08:04:01.429Z,9.73
2017-08-20T08:06:30.872Z,9.00
2017-08-20T08:09:00.338Z,8.87
2017-08-20T08:11:29.789Z,9.87
2017-08-20T08:13:59.253Z,7.77
2017-08-20T08:16:28.692Z,7.80
2017-08-20T08:18:58.136Z,15.00
2017-08-20T08:21:27.584Z,8.73
2017-08-20T08:23:57.038Z,10.67
2017-08-20T08:26:26.504Z,10.67
2017-08-20T08:28:55.974Z,10.90
2017-08-20T08:31:25.432Z,8.00
2017-08-20T08:33:54.894Z,11.27
2017-08-20T08:36:24.337Z,11.30
2017-08-20T08:38:53.822Z,12.67
2017-08-20T08:41:23.261Z,13.37
2017-08-20T08:43:52.710Z,10.40
2017-08-20T08:46:22.163Z,12.40
2017-08-20T08:48:51.612Z,11.77
2017-08-20T08:51:21.054Z,18.43
2017-08-20T08:53:50.498Z,8.97
2017-08-20T08:56:19.938Z,9.60
2017-08-20T08:58:49.390Z,7.50
2017-08-20T09:01:18.824Z,7.33
2017-08-20T09:03:48.256Z,6.77
2017-08-20T09:06:17.705Z,12.20
2017-08-20T09:08:47.138Z,8.37
2017-08-20T09:11:16.572Z,9.00
2017-08-20T09:13:45.887Z,8.20
2017-08-20T09:16:15.321Z,6.07
2017-08-20T09:18:44.768Z,9.90
2017-08-20T09:21:14.244Z,7.87
2017-08-20T09:23:43.328Z,6.77
2017-08-20T09:26:12.781Z,6.83
2017-08-20T09:28:42.233Z,5.83
2017-08-20T09:31:11.664Z,11.63
2017-08-20T09:33:41.115Z,7.30
2017-08-20T09:36:10.573Z,5.80
2017-08-20T09:38:40.036Z,7.33
2017-08-20T09:41:09.479Z,5.50
2017-08-20T09:43:38.920Z,9.40
2017-08-20T09:46:08.368Z,6.20
2017-08-20T09:48:37.944Z,5.80
2017-08-20T09:51:07.363Z,5.27
2017-08-20T09:53:36.817Z,6.40
2017-08-20T09:56:06.262Z,5.27
2017-08-20T09:58:35.764Z,6.73
2017-08-20T10:01:05.211Z,5.20
2017-08-20T10:03:34.653Z,8.73
2017-08-20T10:06:04.106Z,5.83
2017-08-20T10:08:33.576Z,12.77
2017-08-20T10:11:03.012Z,3.10
2017-08-20T10:13:32.477Z,3.53
2017-08-20T10:16:01.922Z,3.27
2017-08-20T10:18:31.386Z,3.60
2017-08-20T10:21:00.849Z,3.50
2017-08-20T10:23:30.336Z,5.03
2017-08-20T10:25:59.793Z,5.03
2017-08-20T10:28:29.253Z,8.20
2017-08-20T10:30:58.701Z,3.50
2017-08-20T10:33:28.168Z,6.77
2017-08-20T10:35:57.617Z,5.83
2017-08-20T10:38:27.056Z,2.37
2017-08-20T10:40:56.490Z,7.43
2017-08-20T10:43:25.931Z,3.60
2017-08-20T10:45:55.375Z,2.40
2017-08-20T10:48:24.826Z,2.60
2017-08-20T10:50:54.264Z,5.60
2017-08-20T10:53:23.704Z,5.63
2017-08-20T10:55:53.183Z,9.80
2017-08-20T10:58:22.652Z,5.03
2017-08-20T11:00:52.098Z,3.13
2017-08-20T11:03:21.549Z,3.17
2017-08-20T11:05:50.988Z,1.77
2017-08-20T11:08:20.429Z,3.60
2017-08-20T11:10:49.860Z,2.10
2017-08-20T11:13:19.315Z,3.43
2017-08-20T11:15:48.748Z,5.47
2017-08-20T11:18:18.176Z,3.17
2017-08-20T11:20:47.613Z,2.50
2017-08-20T11:23:17.065Z,3.23
2017-08-20T11:25:46.500Z,4.73
2017-08-20T11:28:15.959Z,3.00
2017-08-20T11:30:45.404Z,4.50
2017-08-20T11:33:14.845Z,4.60
2017-08-20T11:35:44.313Z,3.80
2017-08-20T11:38:13.739Z,2.20
2017-08-20T11:40:43.184Z,2.07
2017-08-20T11:43:12.652Z,4.40
2017-08-20T11:45:42.129Z,3.27
2017-08-20T11:48:11.557Z,3.70
2017-08-20T11:50:41.006Z,4.07
2017-08-20T11:53:10.448Z,3.13
2017-08-20T11:55:39.901Z,6.13
2017-08-20T11:58:09.341Z,5.63
2017-08-20T12:00:38.817Z,4.80
2017-08-20T12:03:08.234Z,4.10
2017-08-20T12:05:37.690Z,6.27
2017-08-20T12:08:07.141Z,4.63
2017-08-20T12:10:36.582Z,4.77
2017-08-20T12:13:06.035Z,3.90
2017-08-20T12:15:35.465Z,5.00
2017-08-20T12:18:04.909Z,2.90
2017-08-20T12:20:34.348Z,5.07
2017-08-20T12:23:03.614Z,2.47
2017-08-20T12:25:33.052Z,5.57
2017-08-20T12:28:02.488Z,3.40
2017-08-20T12:30:31.962Z,8.73
2017-08-20T12:33:01.399Z,3.93
2017-08-20T12:35:30.844Z,5.60
2017-08-20T12:38:00.297Z,2.00
2017-08-20T12:40:29.745Z,2.97
2017-08-20T12:42:59.200Z,3.80
2017-08-20T12:45:28.648Z,14.27
2017-08-20T12:47:58.096Z,5.47
2017-08-20T12:50:27.536Z,4.77
2017-08-20T12:52:57.009Z,3.67
2017-08-20T12:55:26.440Z,4.07
2017-08-20T12:57:55.885Z,2.60
2017-08-20T13:00:25.322Z,4.30
2017-08-20T13:02:55.641Z,7.30
2017-08-20T13:05:25.077Z,11.40
2017-08-20T13:07:54.517Z,2.13
2017-08-20T13:10:24.031Z,3.90
2017-08-20T13:12:53.494Z,3.23
2017-08-20T13:15:22.961Z,4.50
2017-08-20T13:17:52.399Z,6.03
2017-08-20T13:20:21.884Z,2.07
2017-08-20T13:22:51.357Z,4.70
2017-08-20T13:25:20.847Z,1.67
2017-08-20T13:27:50.284Z,3.90
2017-08-20T13:30:19.760Z,3.57
2017-08-20T13:32:49.215Z,4.73
2017-08-20T13:35:18.744Z,2.53
2017-08-20T13:37:48.170Z,4.93
2017-08-20T13:40:17.677Z,2.17
2017-08-20T13:42:47.120Z,2.23
2017-08-20T13:45:16.730Z,5.03
2017-08-20T13:47:46.223Z,1.73
2017-08-20T13:50:15.917Z,2.50
2017-08-20T13:52:45.342Z,2.90
2017-08-20T13:55:14.843Z,3.40
2017-08-20T13:57:44.273Z,2.73
2017-08-20T14:00:13.781Z,3.00
2017-08-20T14:02:43.221Z,4.70
2017-08-20T14:05:12.695Z,4.73
2017-08-20T14:07:42.130Z,1.97
2017-08-20T14:10:11.605Z,4.93
2017-08-20T14:12:41.070Z,3.83
2017-08-20T14:15:10.590Z,2.40
2017-08-20T14:17:40.057Z,6.23
2017-08-20T14:20:09.537Z,2.43
2017-08-20T14:22:38.957Z,1.70
2017-08-20T14:25:08.426Z,1.73
2017-08-20T14:27:37.910Z,3.00
2017-08-20T14:30:07.389Z,2.33
2017-08-20T14:32:36.837Z,4.63
2017-08-20T14:35:06.363Z,1.47
2017-08-20T14:37:35.611Z,2.33
2017-08-20T14:40:05.124Z,2.00
2017-08-20T14:42:34.586Z,2.37
2017-08-20T14:45:04.061Z,2.50
2017-08-20T14:47:33.503Z,1.60
2017-08-20T14:50:03.002Z,5.63
2017-08-20T14:52:32.458Z,1.40
2017-08-20T14:55:01.973Z,3.47
2017-08-20T14:57:31.403Z,5.60
2017-08-20T15:00:00.858Z,1.60
2017-08-20T15:02:30.145Z,1.70
2017-08-20T15:04:59.634Z,1.83
2017-08-20T15:07:29.072Z,2.67
2017-08-20T15:09:58.517Z,1.83
2017-08-20T15:12:27.955Z,2.63
2017-08-20T15:14:57.397Z,2.80
2017-08-20T15:17:26.864Z,2.90
2017-08-20T15:19:56.334Z,2.83
2017-08-20T15:22:25.810Z,2.93
2017-08-20T15:24:55.275Z,2.43
2017-08-20T15:27:24.737Z,1.63
2017-08-20T15:29:54.165Z,1.90
2017-08-20T15:32:23.851Z,2.93
2017-08-20T15:34:53.295Z,2.63
2017-08-20T15:37:22.753Z,3.87
2017-08-20T15:39:52.199Z,3.20
2017-08-20T15:42:21.647Z,5.77
2017-08-20T15:44:51.083Z,3.50
2017-08-20T15:47:20.534Z,1.27
2017-08-20T15:49:50.009Z,3.43
2017-08-20T15:52:19.452Z,1.97
2017-08-20T15:54:48.924Z,1.30
2017-08-20T15:57:18.386Z,1.33
2017-08-20T15:59:47.841Z,2.10
2017-08-20T16:02:17.285Z,4.77
2017-08-20T16:04:46.774Z,1.20
2017-08-20T16:07:16.291Z,2.17
2017-08-20T16:09:45.749Z,1.53
2017-08-20T16:12:15.213Z,2.70
2017-08-20T16:14:44.648Z,2.10
2017-08-20T16:17:14.092Z,1.67
2017-08-20T16:19:43.542Z,2.50
2017-08-20T16:22:12.989Z,2.33
2017-08-20T16:24:42.446Z,1.60
2017-08-20T16:27:11.895Z,1.93
2017-08-20T16:29:41.348Z,4.93
2017-08-20T16:32:10.625Z,1.47
2017-08-20T16:34:40.070Z,1.37
2017-08-20T16:37:09.526Z,2.30
2017-08-20T16:39:38.960Z,2.27
2017-08-20T16:42:08.420Z,1.60
2017-08-20T16:44:37.867Z,1.40
2017-08-20T16:47:07.297Z,1.50
2017-08-20T16:49:36.746Z,1.60
2017-08-20T16:52:06.209Z,2.10
2017-08-20T16:54:35.668Z,2.53
2017-08-20T16:57:05.113Z,2.83
2017-08-20T16:59:34.564Z,1.80
2017-08-20T17:02:04.011Z,3.50
2017-08-20T17:04:33.472Z,2.90
2017-08-20T17:07:02.916Z,2.10
2017-08-20T17:09:32.369Z,1.57
2017-08-20T17:12:01.823Z,1.20
2017-08-20T17:14:31.264Z,1.43
2017-08-20T17:17:01.161Z,1.40
2017-08-20T17:19:30.607Z,1.33
2017-08-20T17:22:00.112Z,2.00
2017-08-20T17:24:29.784Z,3.63
2017-08-20T17:26:59.234Z,1.87
2017-08-20T17:29:28.674Z,2.63
2017-08-20T17:31:58.118Z,2.97
2017-08-20T17:34:27.553Z,2.57
2017-08-20T17:36:56.991Z,2.23
2017-08-20T17:39:26.448Z,4.30
2017-08-20T17:41:55.897Z,2.60
2017-08-20T17:44:25.354Z,5.03
2017-08-20T17:46:54.798Z,3.73
2017-08-20T17:49:24.247Z,2.67
2017-08-20T17:51:53.681Z,7.07
2017-08-20T17:54:23.127Z,4.17
2017-08-20T17:56:52.580Z,2.83
2017-08-20T17:59:21.849Z,4.93
2017-08-20T18:01:51.417Z,8.73
2017-08-20T18:04:20.733Z,2.20
2017-08-20T18:06:50.185Z,2.70
2017-08-20T18:09:19.617Z,1.80
2017-08-20T18:11:49.052Z,3.37
2017-08-20T18:14:18.513Z,4.33
2017-08-20T18:16:47.954Z,6.27
2017-08-20T18:19:17.418Z,3.03
2017-08-20T18:21:46.858Z,1.70
2017-08-20T18:24:16.301Z,5.30
2017-08-20T18:26:45.740Z,2.43
2017-08-20T18:29:15.197Z,3.20
2017-08-20T18:31:44.642Z,5.77
2017-08-20T18:34:14.091Z,5.40
2017-08-20T18:36:43.530Z,6.90
2017-08-20T18:39:12.982Z,5.37
2017-08-20T18:41:42.433Z,6.77
2017-08-20T18:44:11.673Z,7.50
2017-08-20T18:46:41.129Z,2.03
2017-08-20T18:49:10.583Z,2.10
2017-08-20T18:51:40.021Z,3.17
2017-08-20T18:54:09.497Z,6.93
2017-08-20T18:56:38.935Z,2.33
2017-08-20T18:59:08.445Z,2.33
2017-08-20T19:01:37.889Z,4.33
2017-08-20T19:04:07.340Z,2.10
2017-08-20T19:06:36.797Z,2.20
2017-08-20T19:09:06.257Z,3.40
2017-08-20T19:11:35.687Z,4.80
2017-08-20T19:14:05.432Z,7.10
2017-08-20T19:16:35.154Z,5.05
2017-08-20T19:19:04.903Z,39.40
2017-08-20T19:21:34.678Z,4.00
2017-08-20T19:24:04.422Z,10.20
2017-08-20T19:26:34.170Z,13.15
2017-08-20T19:29:03.909Z,4.78
2017-08-20T19:31:33.645Z,7.47
2017-08-20T19:34:03.380Z,3.97
2017-08-20T19:36:33.132Z,6.15
2017-08-20T19:39:02.861Z,5.45
2017-08-20T19:41:32.588Z,3.60
2017-08-20T19:44:02.337Z,4.15
2017-08-20T19:46:32.103Z,7.97
2017-08-20T19:49:01.821Z,4.03
2017-08-20T19:51:31.568Z,4.20
2017-08-20T19:54:01.303Z,6.05
2017-08-20T19:56:31.037Z,3.87
2017-08-20T19:59:00.771Z,8.93
2017-08-20T20:01:30.517Z,3.15
2017-08-20T20:04:00.260Z,4.50
2017-08-20T20:06:30.036Z,3.80
2017-08-20T20:08:59.871Z,5.25
2017-08-20T20:11:29.577Z,5.70
2017-08-20T20:13:59.294Z,4.37
2017-08-20T20:16:29.042Z,4.80
2017-08-20T20:18:58.778Z,3.47
2017-08-20T20:21:28.509Z,4.10
2017-08-20T20:23:58.251Z,5.87
2017-08-20T20:26:27.992Z,4.10
2017-08-20T20:28:57.739Z,6.93
2017-08-20T20:31:27.472Z,3.50
2017-08-20T20:33:57.206Z,3.90
2017-08-20T20:36:26.958Z,5.70
2017-08-20T20:38:56.777Z,11.48
2017-08-20T20:41:26.509Z,5.28
2017-08-20T20:43:57.081Z,2.90
2017-08-20T20:46:26.818Z,5.70
2017-08-20T20:48:56.556Z,4.00
2017-08-20T20:51:26.277Z,3.95
2017-08-20T20:53:56.009Z,6.60
2017-08-20T20:56:26.673Z,2.92
2017-08-20T20:58:56.433Z,10.98
2017-08-20T21:01:26.144Z,8.32
2017-08-20T21:03:55.879Z,9.40
2017-08-20T21:06:25.605Z,4.85
2017-08-20T21:08:55.355Z,3.60
2017-08-20T21:11:25.080Z,5.07
2017-08-20T21:13:54.804Z,5.47
2017-08-20T21:16:24.547Z,4.70
2017-08-20T21:18:54.264Z,4.97
2017-08-20T21:21:24.008Z,3.08
2017-08-20T21:23:53.744Z,5.37
2017-08-20T21:26:23.484Z,5.70
2017-08-20T21:28:53.229Z,3.65
2017-08-20T21:31:22.948Z,4.32
2017-08-20T21:33:52.693Z,7.47
2017-08-20T21:36:22.422Z,6.28
2017-08-20T21:38:52.144Z,4.32
2017-08-20T21:41:21.893Z,6.78
2017-08-20T21:43:51.625Z,10.32
2017-08-20T21:46:21.369Z,7.12
2017-08-20T21:48:51.137Z,7.75
2017-08-20T21:51:20.854Z,5.12
2017-08-20T21:53:50.586Z,5.10
2017-08-20T21:56:20.316Z,5.65
2017-08-20T21:58:49.872Z,7.32
2017-08-20T22:01:19.596Z,5.15
2017-08-20T22:03:49.322Z,3.50
2017-08-20T22:06:19.050Z,5.35
2017-08-20T22:08:48.793Z,4.82
2017-08-20T22:11:18.533Z,3.45
2017-08-20T22:13:48.262Z,3.20
2017-08-20T22:16:18.011Z,3.92
2017-08-20T22:18:47.756Z,7.60
2017-08-20T22:21:17.505Z,4.68
2017-08-20T22:23:47.243Z,5.80
2017-08-20T22:26:16.981Z,7.65
2017-08-20T22:28:46.713Z,5.75
2017-08-20T22:31:16.438Z,9.45
2017-08-20T22:33:46.182Z,4.80
2017-08-20T22:36:15.938Z,5.95
2017-08-20T22:38:45.668Z,5.95
2017-08-20T22:41:15.392Z,15.13
2017-08-20T22:43:45.116Z,6.60
2017-08-20T22:46:14.833Z,8.43
2017-08-20T22:48:44.642Z,6.07
2017-08-20T22:51:14.384Z,7.87
2017-08-20T22:53:44.108Z,5.95
2017-08-20T22:56:13.849Z,5.87
2017-08-20T22:58:43.577Z,7.00
2017-08-20T23:01:13.301Z,9.15
2017-08-20T23:03:43.050Z,16.00
2017-08-20T23:06:12.791Z,3.85
2017-08-20T23:08:42.537Z,4.70
2017-08-20T23:11:12.281Z,10.13
2017-08-20T23:13:42.006Z,5.70
2017-08-20T23:16:11.756Z,4.20
2017-08-20T23:18:41.475Z,11.25
2017-08-20T23:21:11.208Z,4.37
2017-08-20T23:23:40.940Z,5.30
2017-08-20T23:26:10.679Z,4.00
2017-08-20T23:28:40.418Z,5.85
2017-08-20T23:31:10.145Z,5.15
2017-08-20T23:33:39.936Z,24.02
2017-08-20T23:36:09.669Z,3.80
2017-08-20T23:38:39.454Z,4.55
2017-08-20T23:41:09.240Z,3.60
2017-08-20T23:43:38.979Z,9.90
2017-08-20T23:46:08.738Z,4.68
2017-08-20T23:48:38.446Z,3.92
2017-08-20T23:51:08.177Z,3.97
2017-08-20T23:53:37.897Z,6.20
2017-08-20T23:56:07.621Z,6.50
2017-08-20T23:58:37.352Z,5.00
